Y172 LGSO-ZZZZ

Flight info

Callsign Y172
Flight time N/A
Altitude 2000
Route NISSOSTINOS
Aircraft C172/L-SFG/C

Departure

Time 2026-05-06 15:15
Airport Syros Airport (LGSO)

Arrival

Time N/A
Airport ZZZZ
Time Latitude Longitude Altitude Speed Heading
2026-05-06 15:14 37.42172 24.94988 390 ft 91 kts 182°
2026-05-06 15:15 37.41575 24.95038 572 ft 86 kts 155°
2026-05-06 15:15 37.41255 24.95718 589 ft 100 kts 90°
2026-05-06 15:15 37.41658 24.96453 740 ft 102 kts 47°
2026-05-06 15:15 37.42141 24.97084 911 ft 98 kts 49°
2026-05-06 15:16 37.42599 24.97676 1102 ft 94 kts 46°
2026-05-06 15:16 37.43038 24.98283 1257 ft 92 kts 47°
2026-05-06 15:16 37.43474 24.98889 1403 ft 91 kts 46°
2026-05-06 15:16 37.43901 24.99456 1574 ft 87 kts 47°
2026-05-06 15:17 37.44300 25.00054 1682 ft 93 kts 50°
2026-05-06 15:17 37.44698 25.00682 1838 ft 91 kts 52°
2026-05-06 15:17 37.45063 25.01311 1978 ft 91 kts 53°
2026-05-06 15:17 37.45425 25.01979 2096 ft 94 kts 56°
2026-05-06 15:18 37.45795 25.02719 2074 ft 100 kts 57°
2026-05-06 15:18 37.46146 25.03462 2072 ft 101 kts 59°
2026-05-06 15:18 37.46494 25.04255 2088 ft 103 kts 60°
2026-05-06 15:18 37.46832 25.05054 2077 ft 106 kts 61°
2026-05-06 15:19 37.47163 25.05902 2024 ft 107 kts 64°
2026-05-06 15:19 37.47465 25.06709 2026 ft 100 kts 64°
2026-05-06 15:19 37.47749 25.07529 1877 ft 106 kts 64°
2026-05-06 15:19 37.48145 25.08320 1654 ft 107 kts 53°
2026-05-06 15:20 37.48579 25.09048 1469 ft 100 kts 51°
2026-05-06 15:20 37.49017 25.09746 1216 ft 102 kts 50°
2026-05-06 15:20 37.49489 25.10392 1026 ft 99 kts 46°
2026-05-06 15:20 37.49931 25.10993 948 ft 84 kts 49°
2026-05-06 15:21 37.50339 25.11555 998 ft 88 kts 47°
2026-05-06 15:21 37.50764 25.12114 868 ft 92 kts 47°
2026-05-06 15:21 37.51229 25.12693 697 ft 96 kts 46°
2026-05-06 15:21 37.51723 25.13296 516 ft 100 kts 46°
2026-05-06 15:22 37.52211 25.13888 327 ft 95 kts 45°
2026-05-06 15:22 37.52673 25.14440 182 ft 90 kts 44°
2026-05-06 15:22 37.53127 25.14982 12 ft 78 kts 41°
2026-05-06 15:22 37.53422 25.15307 5 ft 34 kts 39°
2026-05-06 15:23 37.53542 25.15432 5 ft 17 kts 42°
2026-05-06 15:23 37.53620 25.15518 5 ft 14 kts 46°
2026-05-06 15:23 37.53718 25.15662 5 ft 30 kts 50°
2026-05-06 15:23 37.53837 25.15776 5 ft 14 kts 32°
2026-05-06 15:24 37.53845 25.15782 5 ft 0 kts 26°